createdAt,value
2022-12-19T00:01:36.252Z,77.53
2022-12-19T00:04:08.132Z,79.30
2022-12-19T00:06:43.658Z,80.26
2022-12-19T00:09:12.165Z,81.79
2022-12-19T00:11:39.433Z,83.43
2022-12-19T00:14:08.418Z,82.91
2022-12-19T00:16:35.398Z,80.77
2022-12-19T00:19:02.492Z,78.81
2022-12-19T00:21:34.810Z,79.18
2022-12-19T00:24:08.688Z,80.17
2022-12-19T00:26:48.827Z,81.87
2022-12-19T00:29:16.318Z,82.29
2022-12-19T00:31:44.193Z,83.17
2022-12-19T00:34:11.084Z,83.99
2022-12-19T00:36:39.676Z,82.72
2022-12-19T00:39:07.823Z,81.46
2022-12-19T00:41:36.324Z,80.64
2022-12-19T00:44:07.071Z,81.51
2022-12-19T00:46:35.054Z,82.40
2022-12-19T00:49:03.424Z,83.84
2022-12-19T00:51:32.839Z,84.36
2022-12-19T00:54:00.574Z,84.50
2022-12-19T00:56:34.467Z,84.18
2022-12-19T00:59:06.650Z,81.65
2022-12-19T01:01:36.652Z,81.08
2022-12-19T01:04:27.585Z,80.74
2022-12-19T01:06:52.463Z,80.95
2022-12-19T01:09:22.152Z,82.33
2022-12-19T01:12:08.058Z,83.44
2022-12-19T01:14:34.864Z,84.74
2022-12-19T01:17:01.950Z,84.54
2022-12-19T01:19:29.357Z,83.47
2022-12-19T01:21:56.276Z,81.77
2022-12-19T01:24:24.083Z,81.40
2022-12-19T01:26:50.981Z,81.42
2022-12-19T01:29:19.945Z,82.90
2022-12-19T01:31:47.930Z,84.11
2022-12-19T01:34:15.035Z,85.13
2022-12-19T01:36:42.015Z,85.81
2022-12-19T01:39:09.214Z,84.75
2022-12-19T01:41:36.661Z,84.00
2022-12-19T01:44:05.622Z,83.92
2022-12-19T01:46:38.133Z,84.07
2022-12-19T01:49:12.298Z,85.51
2022-12-19T01:51:42.931Z,86.84
2022-12-19T01:54:11.863Z,87.54
2022-12-19T01:56:41.008Z,86.12
2022-12-19T01:59:10.115Z,83.70
2022-12-19T02:01:41.530Z,82.72
2022-12-19T02:04:23.843Z,82.74
2022-12-19T02:06:55.963Z,83.34
2022-12-19T02:09:24.073Z,84.87
2022-12-19T02:11:51.511Z,86.15
2022-12-19T02:14:18.683Z,86.96
2022-12-19T02:17:09.067Z,86.20
2022-12-19T02:19:55.281Z,83.49
2022-12-19T02:22:25.031Z,82.38
2022-12-19T02:25:18.334Z,82.58
2022-12-19T02:28:11.239Z,83.02
2022-12-19T02:30:50.848Z,83.87
2022-12-19T02:33:24.658Z,84.96
2022-12-19T02:35:53.205Z,85.34
2022-12-19T02:38:47.017Z,84.58
2022-12-19T02:41:20.280Z,81.66
2022-12-19T02:43:49.046Z,80.27
2022-12-19T02:46:18.265Z,79.95
2022-12-19T02:48:45.754Z,80.60
2022-12-19T02:51:13.020Z,81.47
2022-12-19T02:53:39.994Z,81.88
2022-12-19T02:56:29.221Z,82.82
2022-12-19T02:59:30.554Z,83.14
2022-12-19T03:02:01.261Z,81.88
2022-12-19T03:04:45.980Z,79.86
2022-12-19T03:07:35.650Z,78.66
2022-12-19T03:10:12.204Z,78.64
2022-12-19T03:12:53.295Z,79.26
2022-12-19T03:15:20.059Z,80.21
2022-12-19T03:17:47.035Z,80.94
2022-12-19T03:20:26.640Z,81.32
2022-12-19T03:22:53.437Z,82.16
2022-12-19T03:25:20.560Z,80.64
2022-12-19T03:27:47.430Z,79.84
2022-12-19T03:30:14.270Z,78.82
2022-12-19T03:32:41.960Z,78.69
2022-12-19T03:35:13.526Z,79.36
2022-12-19T03:37:40.984Z,80.15
2022-12-19T03:40:14.783Z,80.65
2022-12-19T03:43:00.462Z,82.45
2022-12-19T03:45:42.447Z,83.00
2022-12-19T03:48:18.009Z,81.84
2022-12-19T03:50:54.282Z,80.09
2022-12-19T03:53:26.825Z,78.97
2022-12-19T03:55:58.036Z,78.50
2022-12-19T03:58:31.037Z,79.44
2022-12-19T04:00:57.802Z,80.80
2022-12-19T04:03:24.938Z,81.71
2022-12-19T04:05:53.245Z,82.25
2022-12-19T04:08:20.154Z,84.04
2022-12-19T04:10:58.672Z,83.95
2022-12-19T04:13:47.973Z,81.34
2022-12-19T04:16:19.740Z,80.72
2022-12-19T04:18:50.832Z,79.59
2022-12-19T04:21:21.918Z,80.30
2022-12-19T04:23:52.548Z,81.25
2022-12-19T04:26:19.495Z,81.92
2022-12-19T04:28:52.455Z,83.02
2022-12-19T04:31:19.326Z,83.85
2022-12-19T04:33:46.390Z,83.14
2022-12-19T04:36:15.451Z,81.72
2022-12-19T04:38:42.427Z,81.91
2022-12-19T04:41:09.449Z,82.32
2022-12-19T04:43:36.433Z,82.27
2022-12-19T04:46:03.533Z,82.87
2022-12-19T04:48:30.472Z,83.71
2022-12-19T04:50:57.488Z,84.53
2022-12-19T04:53:24.584Z,84.75
2022-12-19T04:55:59.980Z,82.79
2022-12-19T04:58:26.888Z,80.53
2022-12-19T05:00:53.807Z,80.29
2022-12-19T05:03:21.283Z,81.02
2022-12-19T05:05:48.299Z,81.80
2022-12-19T05:08:15.420Z,82.00
2022-12-19T05:10:42.571Z,82.22
2022-12-19T05:13:09.847Z,82.81
2022-12-19T05:15:36.793Z,82.81
2022-12-19T05:18:04.714Z,81.37
2022-12-19T05:20:31.669Z,79.63
2022-12-19T05:23:01.856Z,79.06
2022-12-19T05:25:34.632Z,79.90
2022-12-19T05:28:01.872Z,81.39
2022-12-19T05:30:28.922Z,82.37
2022-12-19T05:32:55.967Z,83.07
2022-12-19T05:35:23.118Z,83.60
2022-12-19T05:37:50.175Z,82.87
2022-12-19T05:40:17.096Z,80.84
2022-12-19T05:42:44.344Z,80.06
2022-12-19T05:45:11.604Z,80.16
2022-12-19T05:47:38.529Z,80.32
2022-12-19T05:50:06.217Z,80.55
2022-12-19T05:52:33.035Z,80.85
2022-12-19T05:54:59.979Z,81.83
2022-12-19T05:57:27.101Z,82.18
2022-12-19T05:59:54.608Z,80.77
2022-12-19T06:02:21.661Z,79.94
2022-12-19T06:04:48.862Z,79.14
2022-12-19T06:07:20.723Z,79.31
2022-12-19T06:09:48.611Z,79.75
2022-12-19T06:12:15.559Z,80.70
2022-12-19T06:14:42.680Z,80.80
2022-12-19T06:17:09.870Z,81.68
2022-12-19T06:19:39.202Z,82.32
2022-12-19T06:22:06.834Z,81.51
2022-12-19T06:24:33.748Z,80.68
2022-12-19T06:27:00.808Z,79.75
2022-12-19T06:29:27.923Z,79.99
2022-12-19T06:31:55.207Z,79.53
2022-12-19T06:34:55.217Z,79.46
2022-12-19T06:37:09.618Z,80.14
2022-12-19T06:39:36.841Z,80.90
2022-12-19T06:42:22.301Z,81.35
2022-12-19T06:44:54.346Z,82.05
2022-12-19T06:47:24.826Z,80.79
2022-12-19T06:49:51.923Z,79.78
2022-12-19T06:52:18.817Z,78.97
2022-12-19T06:54:45.849Z,79.34
2022-12-19T06:57:13.002Z,79.30
2022-12-19T06:59:39.861Z,79.00
2022-12-19T07:02:15.263Z,79.14
2022-12-19T07:04:48.932Z,79.57
2022-12-19T07:07:15.848Z,79.83
2022-12-19T07:09:42.976Z,80.79
2022-12-19T07:12:09.832Z,79.97
2022-12-19T07:14:37.075Z,78.63
2022-12-19T07:17:04.323Z,78.29
2022-12-19T07:19:31.540Z,78.26
2022-12-19T07:21:59.450Z,78.26
2022-12-19T07:24:26.485Z,79.10
2022-12-19T07:26:53.645Z,78.96
2022-12-19T07:29:20.733Z,79.55
2022-12-19T07:31:47.602Z,80.63
2022-12-19T07:34:14.681Z,81.00
2022-12-19T07:36:41.732Z,81.61
2022-12-19T07:39:08.880Z,80.52
2022-12-19T07:41:37.015Z,79.01
2022-12-19T07:44:05.374Z,77.83
2022-12-19T07:46:32.244Z,78.29
2022-12-19T07:48:59.767Z,78.52
2022-12-19T07:51:27.382Z,78.78
2022-12-19T09:21:28.645Z,84.57
2022-12-19T09:24:03.457Z,82.84
2022-12-19T09:26:34.947Z,79.55
2022-12-19T09:29:06.816Z,78.01
2022-12-19T09:31:51.531Z,77.08
2022-12-19T09:34:37.102Z,77.48
2022-12-19T09:37:10.449Z,77.50
2022-12-19T09:39:45.708Z,78.50
2022-12-19T09:42:14.827Z,78.76
2022-12-19T09:44:51.644Z,76.91
2022-12-19T09:47:28.763Z,74.51
2022-12-19T09:49:55.752Z,74.98
2022-12-19T09:52:33.440Z,74.77
2022-12-19T09:55:19.390Z,75.53
2022-12-19T09:58:00.754Z,76.79
2022-12-19T10:00:48.920Z,76.73
2022-12-19T10:03:38.753Z,77.58
2022-12-19T10:07:19.796Z,77.49
2022-12-19T10:11:47.647Z,76.80
2022-12-19T10:12:43.243Z,74.27
2022-12-19T10:15:19.928Z,75.47
2022-12-19T10:18:08.674Z,75.72
2022-12-19T10:20:38.224Z,76.09
2022-12-19T10:23:26.116Z,75.57
2022-12-19T10:25:56.458Z,76.13
2022-12-19T10:28:32.406Z,76.25
2022-12-19T10:31:22.715Z,75.51
2022-12-19T10:34:03.803Z,73.22
2022-12-19T10:37:11.918Z,73.20
2022-12-19T10:39:35.293Z,73.09
2022-12-19T10:42:11.027Z,73.44
2022-12-19T10:44:38.184Z,75.39
2022-12-19T10:47:07.896Z,75.81
2022-12-19T10:49:34.910Z,76.54
2022-12-19T10:52:07.375Z,77.60
2022-12-19T10:54:39.054Z,77.58
2022-12-19T10:57:21.758Z,77.25
2022-12-19T10:59:58.986Z,74.46
2022-12-19T11:02:35.254Z,73.05
2022-12-19T11:05:03.331Z,73.73
2022-12-19T11:07:31.842Z,73.70
2022-12-19T11:10:55.083Z,74.88
2022-12-19T11:17:02.949Z,75.75
2022-12-19T11:21:29.817Z,76.27
2022-12-19T11:25:35.856Z,77.63
2022-12-19T11:29:31.803Z,78.22
2022-12-19T11:29:31.810Z,79.10
2022-12-19T11:29:34.223Z,78.71
2022-12-19T11:33:15.268Z,75.34
2022-12-19T11:35:50.582Z,74.80
2022-12-19T11:38:40.353Z,76.27
2022-12-19T11:41:13.500Z,76.44
2022-12-19T11:43:58.608Z,76.79
2022-12-19T11:46:33.407Z,78.03
2022-12-19T11:49:20.661Z,79.49
2022-12-19T11:52:06.664Z,79.73
2022-12-19T11:54:57.039Z,78.40
2022-12-19T11:57:24.095Z,76.44
2022-12-19T11:59:51.903Z,77.22
2022-12-19T12:02:25.153Z,77.21
2022-12-19T12:05:33.066Z,77.62
2022-12-19T12:08:52.197Z,78.08
2022-12-19T12:19:41.894Z,78.54
2022-12-19T12:22:50.833Z,77.71
2022-12-19T12:27:17.910Z,76.26
2022-12-19T12:31:19.239Z,76.13
2022-12-19T12:31:29.276Z,77.60
2022-12-19T12:31:49.678Z,79.48
2022-12-19T12:31:52.366Z,80.59
2022-12-19T12:35:50.036Z,80.31
2022-12-19T12:42:05.026Z,79.05
2022-12-19T12:44:45.067Z,80.70
2022-12-19T12:47:24.081Z,80.28
2022-12-19T12:49:58.613Z,81.75
2022-12-19T12:52:58.036Z,80.77
2022-12-19T12:55:30.927Z,79.13
2022-12-19T12:57:58.002Z,78.69
2022-12-19T13:00:34.186Z,79.31
2022-12-19T13:03:11.914Z,80.09
2022-12-19T13:05:46.249Z,80.13
2022-12-19T13:08:44.420Z,81.16
2022-12-19T13:11:37.791Z,80.15
2022-12-19T13:14:06.189Z,78.57
2022-12-19T13:16:42.480Z,78.46
2022-12-19T13:19:39.283Z,79.26
2022-12-19T13:22:09.426Z,80.73
2022-12-19T13:24:46.053Z,81.82
2022-12-19T13:27:19.373Z,82.03
2022-12-19T13:29:55.559Z,81.02
2022-12-19T13:32:40.722Z,79.45
2022-12-19T13:36:44.301Z,78.74
2022-12-19T13:39:48.076Z,79.05
2022-12-19T13:40:56.713Z,79.66
2022-12-19T13:43:49.605Z,80.37
2022-12-19T13:46:22.904Z,81.57
2022-12-19T13:48:51.742Z,80.49
2022-12-19T13:51:18.452Z,79.20
2022-12-19T13:53:45.321Z,79.20
2022-12-19T13:56:13.214Z,79.82
2022-12-19T13:58:59.401Z,80.04
2022-12-19T14:01:28.048Z,81.01
2022-12-19T14:03:57.529Z,80.94
2022-12-19T14:06:43.479Z,81.60
2022-12-19T14:11:26.824Z,80.18
2022-12-19T14:14:00.504Z,79.02
2022-12-19T14:15:33.749Z,79.60
2022-12-19T14:18:41.724Z,80.39
2022-12-19T14:22:01.617Z,80.77
2022-12-19T14:23:43.721Z,82.26
2022-12-19T14:28:19.924Z,82.13
2022-12-19T14:30:28.487Z,80.67
2022-12-19T14:33:39.115Z,80.74
2022-12-19T14:36:06.823Z,80.97
2022-12-19T14:39:20.264Z,81.76
2022-12-19T14:41:08.113Z,83.12
2022-12-19T14:44:00.554Z,83.12
2022-12-19T14:53:34.302Z,81.06
2022-12-19T14:54:16.487Z,80.41
2022-12-19T14:54:26.805Z,80.21
2022-12-19T14:56:04.285Z,80.76
2022-12-19T14:58:55.653Z,82.07
2022-12-19T15:01:10.011Z,82.35
2022-12-19T15:03:42.360Z,82.16
2022-12-19T15:06:19.897Z,80.77
2022-12-19T15:11:04.268Z,81.16
2022-12-19T15:14:49.426Z,81.22
2022-12-19T15:15:17.647Z,82.29
2022-12-19T15:17:46.983Z,82.97
2022-12-19T15:20:14.018Z,82.30
2022-12-19T15:22:41.413Z,82.00
2022-12-19T15:25:35.961Z,81.91
2022-12-19T15:28:00.200Z,82.05
2022-12-19T15:30:28.457Z,82.79
2022-12-19T15:32:55.351Z,83.98
2022-12-19T15:35:22.559Z,82.72
2022-12-19T15:37:49.459Z,81.69
2022-12-19T15:40:17.680Z,81.50
2022-12-19T15:42:46.571Z,81.76
2022-12-19T15:45:18.562Z,81.75
2022-12-19T15:47:45.561Z,82.39
2022-12-19T15:50:17.120Z,83.01
2022-12-19T15:52:44.207Z,81.83
2022-12-19T15:55:15.465Z,81.55
2022-12-19T15:57:44.718Z,80.98
2022-12-19T16:00:23.125Z,81.17
2022-12-19T16:05:38.137Z,82.43
2022-12-19T16:08:12.398Z,82.57
2022-12-19T16:10:40.109Z,81.73
2022-12-19T16:13:14.000Z,80.57
2022-12-19T16:15:40.976Z,80.19
2022-12-19T16:18:09.735Z,80.51
2022-12-19T16:20:37.517Z,81.19
2022-12-19T16:23:04.661Z,82.35
2022-12-19T16:25:42.444Z,82.54
2022-12-19T16:28:20.969Z,81.19
2022-12-19T16:30:49.828Z,80.87
2022-12-19T16:33:22.163Z,80.86
2022-12-19T16:36:06.519Z,81.42
2022-12-19T16:38:35.040Z,82.02
2022-12-19T16:41:02.048Z,82.44
2022-12-19T16:43:36.887Z,82.18
2022-12-19T16:46:05.100Z,80.59
2022-12-19T16:48:35.120Z,80.25
2022-12-19T16:51:02.208Z,80.72
2022-12-19T16:53:29.328Z,81.56
2022-12-19T16:55:56.241Z,81.69
2022-12-19T16:58:25.460Z,82.61
2022-12-19T17:00:54.296Z,82.96
2022-12-19T17:03:40.138Z,82.08
2022-12-19T17:06:11.979Z,81.27
2022-12-19T17:08:39.050Z,81.83
2022-12-19T17:11:12.446Z,82.21
2022-12-19T17:13:39.585Z,82.83
2022-12-19T17:16:06.820Z,83.27
2022-12-19T17:18:35.627Z,82.61
2022-12-19T17:21:02.869Z,81.58
2022-12-19T17:23:31.766Z,81.72
2022-12-19T17:25:59.815Z,81.85
2022-12-19T17:28:27.648Z,82.71
2022-12-19T17:30:56.968Z,83.60
2022-12-19T17:33:28.166Z,82.63
2022-12-19T17:35:54.927Z,81.40
2022-12-19T17:38:22.035Z,81.24
2022-12-19T17:40:49.286Z,81.19
2022-12-19T17:43:16.257Z,81.09
2022-12-19T17:45:44.332Z,82.62
2022-12-19T17:48:22.921Z,83.32
2022-12-19T17:50:50.796Z,82.95
2022-12-19T17:53:17.840Z,82.79
2022-12-19T17:55:45.013Z,82.36
2022-12-19T17:58:12.254Z,82.64
2022-12-19T18:00:39.337Z,83.39
2022-12-19T18:03:18.433Z,84.16
2022-12-19T18:05:46.013Z,82.91
2022-12-19T18:08:31.757Z,82.43
2022-12-19T18:11:03.005Z,82.42
2022-12-19T18:13:30.787Z,83.02
2022-12-19T18:16:02.008Z,83.95
2022-12-19T18:18:33.698Z,82.82
2022-12-19T18:21:01.230Z,82.32
2022-12-19T18:23:29.932Z,81.79
2022-12-19T18:26:01.435Z,81.54
2022-12-19T18:28:29.949Z,81.91
2022-12-19T18:31:02.935Z,82.84
2022-12-19T18:33:37.603Z,83.34
2022-12-19T18:36:05.853Z,82.22
2022-12-19T18:38:32.717Z,81.17
2022-12-19T18:40:59.722Z,81.05
2022-12-19T18:43:27.023Z,81.12
2022-12-19T18:45:54.007Z,80.83
2022-12-19T18:48:29.288Z,81.85
2022-12-19T18:50:56.409Z,82.43
2022-12-19T18:53:35.244Z,81.72
2022-12-19T18:56:04.242Z,80.83
2022-12-19T18:58:31.553Z,80.42
2022-12-19T19:00:59.558Z,80.55
2022-12-19T19:03:29.232Z,81.21
2022-12-19T19:05:56.399Z,81.32
2022-12-19T19:08:25.686Z,82.20
2022-12-19T19:11:01.271Z,81.96
2022-12-19T19:13:28.605Z,80.79
2022-12-19T19:16:00.896Z,80.47
2022-12-19T19:18:35.956Z,80.08
2022-12-19T19:21:04.487Z,81.06
2022-12-19T19:23:40.039Z,81.05
2022-12-19T19:26:07.018Z,82.53
2022-12-19T19:28:36.801Z,83.11
2022-12-19T19:31:04.056Z,81.51
2022-12-19T19:33:33.891Z,80.75
2022-12-19T19:36:10.972Z,80.98
2022-12-19T19:38:40.442Z,80.65
2022-12-19T19:41:07.430Z,81.11
2022-12-19T19:43:35.547Z,81.57
2022-12-19T19:46:02.939Z,81.44
2022-12-19T19:48:32.550Z,79.51
2022-12-19T19:50:59.667Z,78.61
2022-12-19T19:53:26.934Z,78.05
2022-12-19T19:55:58.962Z,78.77
2022-12-19T19:58:26.958Z,79.08
2022-12-19T20:00:53.696Z,80.24
2022-12-19T20:03:23.325Z,80.91
2022-12-19T20:05:58.473Z,81.86
2022-12-19T20:08:25.746Z,79.98
2022-12-19T20:10:57.542Z,78.57
2022-12-19T20:13:24.477Z,78.92
2022-12-19T20:15:51.448Z,79.36
2022-12-19T20:18:18.584Z,79.21
2022-12-19T20:20:47.573Z,80.20
2022-12-19T20:23:14.524Z,80.49
2022-12-19T20:25:42.690Z,80.77
2022-12-19T20:28:09.749Z,79.49
2022-12-19T20:30:37.515Z,78.45
2022-12-19T20:33:04.661Z,78.63
2022-12-19T20:35:31.729Z,78.85
2022-12-19T20:37:58.757Z,79.87
2022-12-19T20:40:25.792Z,80.23
2022-12-19T20:42:52.754Z,80.83
2022-12-19T20:45:21.534Z,79.88
2022-12-19T20:47:48.547Z,78.43
2022-12-19T20:50:15.622Z,78.49
2022-12-19T20:52:42.713Z,79.29
2022-12-19T20:55:09.731Z,79.69
2022-12-19T20:57:36.857Z,80.18
2022-12-19T21:00:05.196Z,80.54
2022-12-19T21:02:46.595Z,79.46
2022-12-19T21:05:21.890Z,78.09
2022-12-19T21:07:48.880Z,78.26
2022-12-19T21:10:15.956Z,78.49
2022-12-19T21:12:47.669Z,79.63
2022-12-19T21:15:15.475Z,80.26
2022-12-19T21:17:42.457Z,80.03
2022-12-19T21:20:10.697Z,78.57
2022-12-19T21:22:37.536Z,77.80
2022-12-19T21:25:05.516Z,77.86
2022-12-19T21:27:33.062Z,78.26
2022-12-19T21:30:00.160Z,78.70
2022-12-19T21:32:27.263Z,79.79
2022-12-19T21:34:54.057Z,79.23
2022-12-19T21:37:21.452Z,78.38
2022-12-19T21:47:29.423Z,78.94
2022-12-19T21:49:56.346Z,79.78
2022-12-19T21:52:23.301Z,78.01
2022-12-19T21:54:50.233Z,77.09
2022-12-19T21:57:17.205Z,76.95
2022-12-19T21:59:44.129Z,77.38
2022-12-19T22:02:11.186Z,78.27
2022-12-19T22:04:38.230Z,78.68
2022-12-19T22:07:05.559Z,79.24
2022-12-19T22:09:32.468Z,77.76
2022-12-19T22:11:59.481Z,76.63
2022-12-19T22:14:26.539Z,77.12
2022-12-19T22:16:53.430Z,77.88
2022-12-19T22:19:20.601Z,78.52
2022-12-19T22:21:47.702Z,79.31
2022-12-19T22:24:15.423Z,78.08
2022-12-19T22:26:42.695Z,77.16
2022-12-19T22:29:11.873Z,76.48
2022-12-19T22:31:39.106Z,77.00
2022-12-19T22:34:14.181Z,77.91
2022-12-19T22:36:41.916Z,78.22
2022-12-19T22:39:10.794Z,77.76
2022-12-19T22:41:38.104Z,76.37
2022-12-19T22:44:05.620Z,75.96
2022-12-19T22:46:34.216Z,76.63
2022-12-19T22:49:04.010Z,77.11
2022-12-19T22:51:31.965Z,78.27
2022-12-19T22:53:59.663Z,78.41
2022-12-19T22:56:28.527Z,77.35
2022-12-19T22:58:56.887Z,75.88
2022-12-19T23:01:29.282Z,75.39
2022-12-19T23:03:57.636Z,76.32
2022-12-19T23:06:25.827Z,76.67
2022-12-19T23:08:52.727Z,77.60
2022-12-19T23:11:25.466Z,77.30
2022-12-19T23:13:52.357Z,75.72
2022-12-19T23:16:19.442Z,75.22
2022-12-19T23:18:46.585Z,74.77
2022-12-19T23:21:18.286Z,75.22
2022-12-19T23:23:46.749Z,75.57
2022-12-19T23:26:16.463Z,76.05
2022-12-19T23:28:51.344Z,76.87
2022-12-19T23:31:18.348Z,75.72
2022-12-19T23:33:45.251Z,74.63
2022-12-19T23:36:12.124Z,74.58
2022-12-19T23:38:39.076Z,74.67
2022-12-19T23:41:07.639Z,75.32
2022-12-19T23:43:35.835Z,75.41
2022-12-19T23:46:29.665Z,75.50
2022-12-19T23:48:56.755Z,73.84
2022-12-19T23:51:25.440Z,73.06
2022-12-19T23:53:53.332Z,73.41
2022-12-19T23:56:27.671Z,73.96
2022-12-19T23:58:54.953Z,74.63
